Details From EDDS - Stuttgart
To LOWI - Innsbruck Kranebitten
Flight Number -
Tags Decoded
Created
Modified
Stats Distance 127 nm / 235 km
Max Altitude 0 ft / 0 m
Waypoints 4
Social Downloads 3
Likes 0
Share VATSIM

Download

Looking for another format? Having issues loading an existing format? Contact us
Advertisement - Login to hide

Notes

Decoded

Route

EDDS TGO ALGOI LOWI

ID Type Via Altitude Latitude Longitude Leg Dist Tot Dist Heading (true) Name
O EDDS APT - 0 ft / 0 m 48.68573˚ 9.20013˚ - 0 nm - -
TGO VOR - 0 ft / 0 m 48.61841˚ 9.25921˚ 4 nm 4 nm 150° / 150° TANGO VORTAC
ALGOI FIX - 0 ft / 0 m 47.44743˚ 10.48867˚ 85 nm 90 nm 144° / 145° -
O LOWI APT - 0 ft / 0 m 47.25883˚ 11.33091˚ 36 nm 126 nm 108° / 109° -

Altitude Profile

Advertisement - Login to hide

EDDS

Details ICAO EDDS (STR)
Name Stuttgart
Region Germany - Civil
Timezone Europe/Berlin (UTC+2.0)
Stats Elevation 1,273 ft / 388 m (AMSL)
Location 48.689876° 9.221962°
Runways 1
Magnetic Variation 2.579° E

METAR

EDDS 271420Z 32003KT 280V360 9999 FEW040CB SCT110 BKN300 26/14 Q1018 NOSIG

Decode

TAF

TAF TAF EDDS 271100Z 2712/2812 05005KT 9999 FEW040 PROB30 TEMPO 2712/2720 19015G25KT 3000 TSRAGR BKN040CB BECMG 2718/2721 VRB03KT BECMG 2806/2809 05005KT

Decode

Departure Runways

ID Width Length Bearing (true) Bearing (mag) Surface Threshold Offset Overrun Length
07 148 ft / 45 m 10,950 ft / 3,337 m 73.96° 71.38° Concrete 981 ft / 299 m 157 ft / 48 m
25 148 ft / 45 m 10,950 ft / 3,337 m 253.99° 251.41° Concrete 0 ft / 0 m 157 ft / 48 m

LOWI

Details ICAO LOWI (INN)
Name Innsbruck Kranebitten
Region Austria
Timezone Europe/Vienna (UTC+2.0)
Stats Elevation 1,906 ft / 581 m (AMSL)
Location 47.260226° 11.343967°
Runways 1
Magnetic Variation 3.072° E

METAR

LOWI 271350Z 08010G20KT 050V120 9999 TS FEW060CB BKN080 26/11 Q1018 TEMPO 01012G25KT TSRA

Decode

TAF

TAF LOWI 271115Z 2712/2812 09005KT 9999 FEW060 SCT150 BKN250 TX28/2812Z TN14/2804Z TEMPO 2712/2718 09013KT TSRA SCT070 FEW070CB PROB30 TEMPO 2714/2719 VRB15G25KT TSGR SCT060CB BKN080 BECMG 2719/2721 VRB02KT CAVOK BECMG 2804/2806 27007KT BECMG 2809/2811 12012G25KT FEW070 BKN300

Decode

Destination Runways

ID Width Length Bearing (true) Bearing (mag) Surface Threshold Offset Overrun Length
08 148 ft / 45 m 6,545 ft / 1,995 m 81.02° 77.95° Asphalt 338 ft / 103 m 0 ft / 0 m
26 148 ft / 45 m 6,545 ft / 1,995 m 261.04° 257.97° Asphalt 0 ft / 0 m 0 ft / 0 m

Approach Navaids

Runway Type Ident Frequency Range Bearing (true) Bearing (mag) Slope Elevation
26 Localiser OEV 111.10 MHz 27 nm / 50 km 256.00° 252.93° - 1,906 ft / 581 m (AMSL)
26 Localiser OEJ 109.70 MHz 30 nm / 56 km 69.00° 65.93° - 1,906 ft / 581 m (AMSL)
26 Glidescope OEV 111.10 MHz 18 nm / 33 km 256.00° 252.93° 3.80° 1,911 ft / 582 m (AMSL)
26 DME OEJ 109.70 MHz 30 nm / 56 km - - - 1,906 ft / 581 m (AMSL)
26 DME OEV 111.10 MHz 27 nm / 50 km - - - 1,911 ft / 582 m (AMSL)

Popular Alternatives